createdAt,value
2018-07-13T00:00:56.784Z,95.50
2018-07-13T00:05:51.204Z,95.40
2018-07-13T00:10:45.596Z,95.60
2018-07-13T00:15:55.524Z,95.30
2018-07-13T00:20:49.956Z,95.60
2018-07-13T00:25:44.406Z,95.90
2018-07-13T00:35:32.932Z,96.40
2018-07-13T00:40:27.355Z,96.50
2018-07-13T00:45:21.797Z,96.40
2018-07-13T00:50:16.220Z,96.40
2018-07-13T00:55:10.655Z,96.60
2018-07-13T01:04:59.308Z,96.80
2018-07-13T01:09:53.745Z,97.00
2018-07-13T01:14:48.241Z,97.00
2018-07-13T01:19:42.668Z,97.30
2018-07-13T01:24:37.057Z,97.50
2018-07-13T01:29:31.483Z,97.60
2018-07-13T01:34:25.915Z,98.00
2018-07-13T01:39:20.335Z,97.80
2018-07-13T01:49:08.867Z,98.20
2018-07-13T01:54:03.316Z,98.40
2018-07-13T01:58:57.708Z,98.60
2018-07-13T02:03:52.160Z,98.90
2018-07-13T02:08:46.760Z,99.50
2018-07-13T02:13:41.224Z,99.10
2018-07-13T02:18:35.609Z,99.30
2018-07-13T02:23:30.000Z,99.50
2018-07-13T02:28:24.408Z,99.50
2018-07-13T02:33:18.827Z,99.70
2018-07-13T02:38:13.289Z,99.70
2018-07-13T02:43:07.699Z,99.90
2018-07-13T02:48:02.124Z,99.90
2018-07-13T02:57:50.692Z,99.90
2018-07-13T03:02:45.129Z,99.90
2018-07-13T03:07:39.553Z,99.90
2018-07-13T03:12:34.010Z,99.90
2018-07-13T03:17:28.493Z,99.90
2018-07-13T03:22:22.921Z,99.90
2018-07-13T03:27:17.361Z,99.90
2018-07-13T03:32:11.757Z,99.90
2018-07-13T03:37:06.188Z,99.90
2018-07-13T03:42:00.613Z,99.90
2018-07-13T03:46:55.004Z,99.90
2018-07-13T03:51:49.451Z,99.90
2018-07-13T03:56:43.913Z,99.90
2018-07-13T04:01:38.359Z,99.90
2018-07-13T04:06:32.873Z,99.90
2018-07-13T04:11:27.347Z,99.90
2018-07-13T04:16:21.948Z,99.90
2018-07-13T04:21:16.407Z,99.00
2018-07-13T04:26:10.916Z,97.20
2018-07-13T04:31:05.424Z,95.50
2018-07-13T04:35:59.881Z,94.00
2018-07-13T04:40:54.532Z,92.60
2018-07-13T04:45:49.024Z,90.80
2018-07-13T04:55:37.765Z,87.20
2018-07-13T05:00:32.387Z,86.80
2018-07-13T05:05:26.966Z,85.80
2018-07-13T05:10:21.667Z,81.10
2018-07-13T05:15:16.182Z,77.50
2018-07-13T05:20:10.709Z,74.90
2018-07-13T05:25:05.956Z,74.90
2018-07-13T05:30:01.595Z,73.10
2018-07-13T05:34:57.060Z,73.10
2018-07-13T05:39:51.649Z,71.70
2018-07-13T05:44:46.500Z,72.00
2018-07-13T05:49:41.123Z,69.60
2018-07-13T05:59:29.967Z,66.30
2018-07-13T06:04:24.451Z,65.70
2018-07-13T06:09:18.902Z,65.50
2018-07-13T06:14:13.336Z,66.10
2018-07-13T06:19:07.887Z,65.20
2018-07-13T06:28:57.289Z,65.20
2018-07-13T06:33:51.737Z,65.00
2018-07-13T06:38:46.402Z,65.10
2018-07-13T06:43:41.526Z,66.70
2018-07-13T06:48:42.162Z,67.80
2018-07-13T06:53:40.616Z,68.30
2018-07-13T06:58:51.968Z,67.70
2018-07-13T07:04:57.386Z,69.30
2018-07-13T07:10:01.048Z,69.10
2018-07-13T07:19:51.574Z,73.20
2018-07-13T07:24:46.206Z,73.10
2018-07-13T07:29:59.416Z,72.10
2018-07-13T07:34:53.914Z,72.40
2018-07-13T07:39:54.864Z,73.50
2018-07-13T07:44:49.717Z,74.30
2018-07-13T07:49:44.158Z,75.60
2018-07-13T07:54:38.564Z,78.40
2018-07-13T07:59:33.056Z,78.50
2018-07-13T08:04:27.883Z,77.00
2018-07-13T08:09:22.617Z,78.80
2018-07-13T08:14:17.781Z,76.80
2018-07-13T08:19:12.618Z,77.20
2018-07-13T08:24:07.811Z,76.00
2018-07-13T08:29:03.249Z,75.60
2018-07-13T08:38:52.216Z,75.10
2018-07-13T08:43:47.103Z,74.10
2018-07-13T08:48:41.825Z,74.10
2018-07-13T08:53:37.019Z,74.70
2018-07-13T08:58:31.524Z,73.90
2018-07-13T09:03:27.329Z,74.50
2018-07-13T09:08:23.126Z,73.50
2018-07-13T09:18:14.045Z,74.90
2018-07-13T09:23:09.035Z,72.70
2018-07-13T09:28:03.930Z,72.90
2018-07-13T09:32:58.838Z,74.10
2018-07-13T09:37:53.461Z,72.40
2018-07-13T09:47:44.473Z,70.30
2018-07-13T09:52:39.703Z,69.00
2018-07-13T09:57:34.456Z,67.70
2018-07-13T10:02:29.020Z,66.80
2018-07-13T10:07:23.709Z,67.60
2018-07-13T10:12:18.161Z,67.90
2018-07-13T10:17:12.694Z,65.30
2018-07-13T10:22:07.203Z,65.10
2018-07-13T10:27:01.820Z,64.60
2018-07-13T10:31:56.584Z,63.60
2018-07-13T10:37:00.480Z,60.70
2018-07-13T10:41:55.148Z,59.10
2018-07-13T10:46:53.325Z,61.40
2018-07-13T10:51:48.799Z,61.70
2018-07-13T10:56:43.207Z,59.80
2018-07-13T11:01:47.566Z,59.50
2018-07-13T11:11:37.644Z,58.30
2018-07-13T11:16:32.281Z,57.40
2018-07-13T11:21:26.788Z,57.30
2018-07-13T11:26:21.236Z,56.80
2018-07-13T11:41:04.535Z,55.30
2018-07-13T11:51:01.855Z,53.10
2018-07-13T11:55:56.381Z,53.00
2018-07-13T12:00:51.015Z,54.20
2018-07-13T12:05:46.127Z,54.20
2018-07-13T12:10:40.557Z,55.30
2018-07-13T12:20:29.252Z,49.20
2018-07-13T12:25:23.749Z,49.20
2018-07-13T12:30:18.244Z,47.10
2018-07-13T12:35:12.694Z,44.30
2018-07-13T12:40:07.269Z,44.80
2018-07-13T12:45:01.904Z,45.00
2018-07-13T12:49:56.399Z,45.20
2018-07-13T12:59:45.092Z,42.60
2018-07-13T13:04:42.710Z,42.30
2018-07-13T13:09:37.544Z,41.70
2018-07-13T13:14:32.209Z,41.90
2018-07-13T13:19:28.036Z,40.80
2018-07-13T13:24:22.785Z,41.20
2018-07-13T13:29:21.970Z,42.10
2018-07-13T13:34:16.401Z,42.90
2018-07-13T13:39:11.193Z,43.50
2018-07-13T13:44:05.629Z,45.00
2018-07-13T13:49:00.068Z,45.40
2018-07-13T14:03:45.677Z,45.50
2018-07-13T14:08:40.660Z,45.10
2018-07-13T14:13:35.605Z,45.90
2018-07-13T14:18:30.525Z,45.70
2018-07-13T14:28:19.269Z,45.50
2018-07-13T14:33:13.837Z,45.40
2018-07-13T14:38:08.326Z,45.30
2018-07-13T14:43:02.935Z,44.50
2018-07-13T14:47:57.681Z,45.30
2018-07-13T14:52:53.172Z,44.90
2018-07-13T14:57:47.807Z,45.10
2018-07-13T15:07:36.845Z,44.80
2018-07-13T15:17:25.569Z,44.20
2018-07-13T15:22:20.117Z,44.30
2018-07-13T15:27:14.572Z,44.10
2018-07-13T15:32:09.252Z,42.90
2018-07-13T15:37:03.741Z,43.80
2018-07-13T15:41:58.324Z,43.10
2018-07-13T15:47:00.090Z,42.70
2018-07-13T15:51:54.893Z,42.10
2018-07-13T15:56:49.837Z,43.10
2018-07-13T16:01:44.408Z,41.50
2018-07-13T16:06:39.471Z,42.30
2018-07-13T16:11:34.097Z,41.70
2018-07-13T16:16:28.681Z,41.50
2018-07-13T16:21:23.252Z,42.00
2018-07-13T16:26:17.843Z,42.30
2018-07-13T16:31:12.473Z,42.70
2018-07-13T16:36:07.149Z,42.70
2018-07-13T16:41:01.697Z,43.50
2018-07-13T16:45:56.279Z,42.50
2018-07-13T16:50:51.008Z,41.80
2018-07-13T16:55:45.652Z,42.00
2018-07-13T17:00:40.574Z,44.70
2018-07-13T17:05:35.141Z,46.60
2018-07-13T17:10:29.735Z,47.70
2018-07-13T17:15:24.272Z,47.90
2018-07-13T17:20:18.879Z,52.00
2018-07-13T17:25:13.525Z,50.70
2018-07-13T17:30:10.180Z,49.00
2018-07-13T17:35:05.134Z,49.20
2018-07-13T17:44:53.944Z,49.30
2018-07-13T17:49:48.701Z,48.90
2018-07-13T17:54:43.493Z,49.60
2018-07-13T18:09:26.666Z,50.00
2018-07-13T18:14:21.188Z,49.80
2018-07-13T18:19:15.976Z,50.50
2018-07-13T18:24:11.150Z,51.10
2018-07-13T18:29:06.085Z,51.50
2018-07-13T18:34:00.625Z,53.40
2018-07-13T18:38:55.233Z,54.00
2018-07-13T18:43:50.481Z,53.90
2018-07-13T18:48:45.005Z,54.20
2018-07-13T18:53:39.560Z,54.10
2018-07-13T18:58:34.070Z,54.10
2018-07-13T19:03:28.718Z,52.70
2018-07-13T19:08:23.272Z,52.20
2018-07-13T19:13:18.246Z,52.70
2018-07-13T19:18:12.938Z,53.50
2018-07-13T19:23:07.476Z,55.50
2018-07-13T19:28:02.184Z,57.50
2018-07-13T19:32:56.681Z,58.60
2018-07-13T19:37:51.864Z,59.70
2018-07-13T19:42:46.649Z,60.80
2018-07-13T19:47:41.184Z,62.30
2018-07-13T19:52:35.841Z,64.20
2018-07-13T19:57:30.704Z,66.20
2018-07-13T20:02:25.223Z,73.70
2018-07-13T20:07:19.843Z,76.10
2018-07-13T20:12:14.449Z,82.90
2018-07-13T20:17:09.392Z,85.40
2018-07-13T20:22:03.916Z,85.60
2018-07-13T20:26:58.729Z,85.20
2018-07-13T20:31:53.257Z,85.10
2018-07-13T20:36:47.809Z,85.20
2018-07-13T20:46:36.584Z,86.10
2018-07-13T20:51:31.113Z,86.40
2018-07-13T20:56:25.701Z,86.40
2018-07-13T21:01:20.312Z,85.90
2018-07-13T21:06:14.855Z,86.30
2018-07-13T21:11:09.390Z,87.70
2018-07-13T21:16:03.925Z,88.20
2018-07-13T21:20:58.612Z,87.90
2018-07-13T21:30:47.394Z,88.20
2018-07-13T21:35:41.941Z,88.50
2018-07-13T21:40:36.490Z,88.40
2018-07-13T21:45:31.097Z,87.10
2018-07-13T21:50:25.682Z,88.90
2018-07-13T21:55:20.808Z,87.10
2018-07-13T22:00:15.409Z,88.00
2018-07-13T22:05:09.951Z,87.70
2018-07-13T22:14:58.981Z,88.20
2018-07-13T22:19:54.116Z,89.20
2018-07-13T22:24:49.058Z,89.70
2018-07-13T22:29:43.585Z,90.10
2018-07-13T22:34:38.177Z,90.00
2018-07-13T22:39:32.696Z,90.20
2018-07-13T22:44:27.228Z,90.50
2018-07-13T22:49:21.765Z,90.20
2018-07-13T22:54:16.275Z,89.80
2018-07-13T22:59:10.847Z,90.10
2018-07-13T23:04:05.395Z,90.30
2018-07-13T23:08:59.892Z,90.70
2018-07-13T23:13:54.368Z,89.90
2018-07-13T23:18:48.921Z,90.30
2018-07-13T23:23:43.481Z,90.70
2018-07-13T23:28:38.005Z,90.90
2018-07-13T23:33:32.490Z,91.00
2018-07-13T23:38:27.001Z,91.30
2018-07-13T23:43:21.509Z,91.40
2018-07-13T23:48:15.980Z,90.10
2018-07-13T23:53:10.453Z,90.40
2018-07-13T23:58:04.928Z,91.60
